Time;durP1;ratioP1;P1;durP2;ratioP2;P2;SDS_P1;SDS_P2;PMS_P1;PMS_P2;Temp;Humidity;BMP_temperature;BMP_pressure;BME280_temperature;BME280_humidity;BME280_pressure;Samples;Min_cycle;Max_cycle;Signal;HPM_P1;HPM_P2
2023/08/13 00:01:28;;;;;;;12.82;4.80;;;16.20;99.90;;;-144.05;83.56;56959.28;6189038;23;20085;-82
2023/08/13 00:03:53;;;;;;;8.48;3.55;;;16.20;99.90;;;-144.05;83.48;56967.78;6161665;23;20009;-84
2023/08/13 00:06:19;;;;;;;11.50;3.92;;;16.30;99.90;;;-144.05;83.21;56963.53;6188555;23;20430;-85
2023/08/13 00:08:45;;;;;;;7.63;3.17;;;16.30;99.90;;;-144.05;83.11;56944.41;6188380;23;20008;-84
2023/08/13 00:11:11;;;;;;;10.77;3.83;;;16.30;99.90;;;-144.05;82.66;56972.03;6157136;23;20013;-82
2023/08/13 00:13:41;;;;;;;7.82;3.05;;;16.30;99.90;;;-144.05;82.34;56933.78;6158709;23;20072;-83
2023/08/13 00:16:09;;;;;;;10.63;3.38;;;16.40;99.90;;;-144.05;81.84;56957.16;6159613;23;20033;-83
2023/08/13 00:18:35;;;;;;;7.40;3.30;;;16.40;99.90;;;-144.05;81.34;56972.03;6158785;23;20001;-84
2023/08/13 00:21:01;;;;;;;5.65;3.28;;;16.40;99.90;;;-144.05;80.89;56959.28;6159797;23;20061;-82
2023/08/13 00:23:27;;;;;;;5.07;3.00;;;16.50;99.90;;;-144.05;80.84;56963.53;6157157;23;20021;-85
2023/08/13 00:25:53;;;;;;;5.28;2.95;;;16.50;99.90;;;-144.05;80.55;56969.91;6157014;23;20351;-83
2023/08/13 00:28:19;;;;;;;7.75;2.95;;;16.50;99.90;;;-144.05;80.21;56946.53;6158407;23;20028;-83
2023/08/13 00:30:45;;;;;;;6.15;3.38;;;16.50;99.90;;;-144.05;80.07;56946.53;6158320;23;20388;-83
2023/08/13 00:33:11;;;;;;;9.27;3.67;;;16.40;99.90;;;-144.05;80.08;56955.03;6156802;23;20028;-82
2023/08/13 00:35:36;;;;;;;7.38;2.90;;;16.50;99.90;;;-144.05;80.05;56967.78;6156324;23;20509;-85
2023/08/13 00:38:02;;;;;;;5.95;2.85;;;16.50;99.90;;;-144.05;79.98;56959.28;6155577;23;20008;-84
2023/08/13 00:40:28;;;;;;;10.35;3.75;;;16.40;99.90;;;-144.05;79.74;56974.16;6156607;23;20009;-83
2023/08/13 00:42:54;;;;;;;8.77;2.83;;;16.40;99.90;;;-144.05;79.85;56961.41;6179979;23;20010;-84
2023/08/13 00:45:20;;;;;;;6.13;3.13;;;16.40;99.90;;;-144.05;79.67;56978.41;6155459;23;20009;-83
2023/08/13 00:47:47;;;;;;;7.40;3.45;;;16.40;99.90;;;-144.05;79.58;56972.03;6156580;23;20006;-83
2023/08/13 00:50:14;;;;;;;10.32;3.17;;;16.40;99.90;;;-144.05;79.60;56976.28;6156571;23;20009;-83
2023/08/13 00:52:40;;;;;;;4.45;2.63;;;16.30;99.90;;;-144.05;79.95;56961.41;6156001;23;20013;-83
2023/08/13 00:55:08;;;;;;;7.43;3.63;;;16.30;99.90;;;-144.05;80.17;56955.03;6157195;23;20457;-83
2023/08/13 00:57:34;;;;;;;8.20;3.55;;;16.20;99.90;;;-144.05;80.65;56942.28;6155062;23;20005;-83
2023/08/13 01:00:01;;;;;;;9.32;3.97;;;16.10;99.90;;;-144.05;81.25;56950.78;6154758;23;20440;-83
2023/08/13 01:02:27;;;;;;;8.48;3.58;;;16.10;99.90;;;-144.05;80.96;56965.66;6156112;23;20006;-83
2023/08/13 01:04:53;;;;;;;8.80;4.00;;;16.10;99.90;;;-144.05;82.37;56972.03;6156340;23;20005;-83
2023/08/13 01:07:50;;;;;;;11.82;3.90;;;16.10;99.90;;;-144.05;82.36;56955.03;6154349;23;20005;-84
2023/08/13 01:10:37;;;;;;;12.80;4.53;;;16.10;99.90;;;-144.05;82.88;56967.78;6165795;23;20009;-81
2023/08/13 01:13:37;;;;;;;10.10;4.85;;;16.10;99.90;;;-144.05;82.75;56955.03;6186067;23;20040;-86
2023/08/13 01:16:08;;;;;;;12.95;4.35;;;16.20;99.90;;;-144.05;82.88;56955.03;6159628;23;20020;-84
2023/08/13 01:18:39;;;;;;;9.32;4.32;;;16.20;99.90;;;-144.05;82.66;56961.41;6184528;23;20013;-82
2023/08/13 01:21:05;;;;;;;10.57;4.32;;;16.30;99.90;;;-144.05;82.19;56986.91;6186471;23;20068;-84
2023/08/13 01:23:31;;;;;;;9.65;4.30;;;16.40;99.90;;;-144.05;81.82;56952.91;6186318;23;20446;-81
2023/08/13 01:26:18;;;;;;;10.27;4.60;;;16.50;99.90;;;-144.05;81.40;56948.66;6159777;23;20005;-85
2023/08/13 01:29:03;;;;;;;9.60;4.88;;;16.60;99.90;;;-144.05;81.40;56957.16;6185771;23;20316;-84
2023/08/13 01:31:37;;;;;;;8.07;4.55;;;16.60;99.90;;;-144.05;81.11;56972.03;6184006;23;20406;-82
2023/08/13 01:34:06;;;;;;;9.02;3.95;;;16.60;99.90;;;-144.05;80.95;56972.03;6185915;23;20015;-82
2023/08/13 01:36:33;;;;;;;10.25;4.57;;;16.60;99.90;;;-144.05;80.62;56961.41;6185535;23;20005;-84
2023/08/13 01:39:01;;;;;;;10.73;4.32;;;16.70;99.90;;;-144.05;80.79;56972.03;6186198;23;20056;-82
2023/08/13 01:41:54;;;;;;;12.50;5.72;;;16.70;99.90;;;-144.05;80.54;56989.00;6186232;23;20088;-83
2023/08/13 01:44:21;;;;;;;8.88;3.83;;;16.70;99.90;;;-144.05;80.34;56965.66;6184239;23;20092;-82
2023/08/13 01:46:48;;;;;;;11.68;3.90;;;16.70;99.90;;;-144.05;80.28;56948.66;6159558;23;20013;-84
2023/08/13 01:49:14;;;;;;;11.63;4.15;;;16.70;99.90;;;-144.05;79.82;56965.66;6186526;23;20009;-84
2023/08/13 01:51:40;;;;;;;9.75;4.63;;;16.70;99.90;;;-144.05;79.32;56969.91;6159126;23;20331;-83
2023/08/13 01:54:07;;;;;;;8.80;3.70;;;16.80;99.90;;;-144.05;78.95;56944.41;6159454;23;20054;-83
2023/08/13 01:56:32;;;;;;;12.85;4.70;;;16.80;99.90;;;-144.05;79.15;56982.66;6185364;23;20001;-84
2023/08/13 01:58:58;;;;;;;7.80;3.67;;;16.80;99.90;;;-144.05;78.51;56976.28;6159439;23;20074;-83
2023/08/13 02:01:24;;;;;;;11.50;3.95;;;16.90;99.90;;;-144.05;78.29;56959.28;6190434;23;20120;-85
2023/08/13 02:03:50;;;;;;;8.48;3.92;;;16.90;99.90;;;-144.05;78.15;56965.66;6190541;23;20063;-86
2023/08/13 02:06:16;;;;;;;8.70;3.80;;;16.90;99.90;;;-144.05;78.26;56961.41;6163894;23;20085;-83
2023/08/13 02:08:42;;;;;;;11.40;4.28;;;16.90;99.90;;;-144.05;78.20;56967.78;6163777;23;20457;-87
2023/08/13 02:11:08;;;;;;;12.60;4.55;;;16.80;99.90;;;-144.05;78.25;56974.16;6183824;23;20013;-82
2023/08/13 02:13:34;;;;;;;12.88;4.35;;;16.80;99.90;;;-144.05;77.98;56946.53;6174897;23;20037;-83
2023/08/13 02:16:06;;;;;;;12.48;4.40;;;16.80;99.90;;;-144.05;77.48;56942.28;6161547;23;20427;-83
2023/08/13 02:18:32;;;;;;;9.07;4.03;;;16.80;99.90;;;-144.05;77.53;56972.03;6160574;23;20001;-82
2023/08/13 02:20:58;;;;;;;11.32;4.75;;;16.70;99.90;;;-144.05;77.31;56961.41;6159695;23;20009;-83
2023/08/13 02:23:24;;;;;;;7.28;3.80;;;16.70;99.90;;;-144.05;76.93;56969.91;6160244;23;20010;-82
2023/08/13 02:25:53;;;;;;;12.68;4.28;;;16.80;99.90;;;-144.05;77.11;56955.03;6157662;23;20076;-83
2023/08/13 02:28:19;;;;;;;8.95;4.60;;;16.70;99.90;;;-144.05;76.90;56965.66;6157167;23;20037;-84
2023/08/13 02:30:45;;;;;;;9.55;3.35;;;16.70;99.90;;;-144.05;76.78;56969.91;6157201;23;20012;-83
2023/08/13 02:33:10;;;;;;;13.00;3.90;;;16.70;99.90;;;-144.05;76.86;56976.28;6157165;23;20010;-82
2023/08/13 02:35:36;;;;;;;13.88;4.75;;;16.60;99.90;;;-144.05;77.15;56955.03;6156315;23;20035;-84
2023/08/13 02:38:02;;;;;;;7.20;3.95;;;16.60;99.90;;;-144.05;77.23;56950.78;6157517;23;20308;-82
2023/08/13 02:40:28;;;;;;;10.30;4.03;;;16.50;99.90;;;-144.05;77.23;56965.66;6154838;23;20005;-83
2023/08/13 02:42:54;;;;;;;13.30;4.22;;;16.40;99.90;;;-144.05;77.50;56938.03;6156749;23;20020;-83
2023/08/13 02:45:20;;;;;;;11.38;4.25;;;16.30;99.90;;;-144.05;77.46;56950.78;6156474;23;20009;-84
2023/08/13 02:47:45;;;;;;;11.00;3.78;;;16.30;99.90;;;-144.05;77.83;56980.53;6157351;23;20498;-84
2023/08/13 02:50:11;;;;;;;13.65;4.65;;;16.20;99.90;;;-144.05;77.91;56957.16;6155930;23;20009;-84
2023/08/13 02:52:37;;;;;;;11.60;3.92;;;16.20;99.90;;;-144.05;77.97;56965.66;6155806;23;20006;-81
2023/08/13 02:55:03;;;;;;;9.13;3.58;;;16.10;99.90;;;-144.05;77.79;56972.03;6155171;23;20060;-82
2023/08/13 02:57:29;;;;;;;12.55;4.15;;;16.10;99.90;;;-144.05;78.08;56965.66;6157498;23;20077;-81
2023/08/13 02:59:55;;;;;;;16.98;4.30;;;16.10;99.90;;;-144.05;78.03;56955.03;6155494;23;20043;-81
2023/08/13 03:02:21;;;;;;;14.40;4.10;;;16.00;99.90;;;-144.05;78.57;56957.16;6155246;23;20382;-84
2023/08/13 03:04:46;;;;;;;8.80;4.07;;;15.90;99.90;;;-144.05;78.82;56972.03;6155529;23;20158;-84
2023/08/13 03:07:12;;;;;;;6.75;3.50;;;15.90;99.90;;;-144.05;78.91;56963.53;6156988;23;20013;-85
2023/08/13 03:09:38;;;;;;;8.00;3.83;;;15.80;99.90;;;-144.05;79.34;56955.03;6157555;23;20084;-85
2023/08/13 03:12:05;;;;;;;11.55;3.67;;;15.80;99.90;;;-144.05;79.62;56976.28;6186944;23;20037;-85
2023/08/13 03:14:31;;;;;;;9.77;3.80;;;15.70;99.90;;;-144.05;80.02;56965.66;6187231;23;20382;-85
2023/08/13 03:16:57;;;;;;;7.95;3.88;;;15.70;99.90;;;-144.05;80.52;56959.28;6187217;23;20015;-85
2023/08/13 03:19:23;;;;;;;11.85;3.88;;;15.60;99.90;;;-144.05;80.92;56969.91;6188982;23;20322;-85
2023/08/13 03:21:48;;;;;;;7.82;3.63;;;15.50;99.90;;;-144.05;81.22;56963.53;6189408;23;20014;-85
2023/08/13 03:24:14;;;;;;;7.22;3.03;;;15.50;99.90;;;-144.05;81.04;56976.28;6188633;23;20059;-85
2023/08/13 03:26:41;;;;;;;15.25;3.83;;;15.50;99.90;;;-144.05;81.33;56982.66;6187310;23;20017;-85
2023/08/13 03:29:06;;;;;;;10.38;4.03;;;15.40;99.90;;;-144.05;82.52;56961.41;6189038;23;20012;-85
2023/08/13 03:31:32;;;;;;;9.90;4.28;;;15.40;99.90;;;-144.05;82.72;56963.53;6162697;23;20006;-85
2023/08/13 03:33:58;;;;;;;13.40;4.05;;;15.40;99.90;;;-144.05;83.14;56938.03;6188268;23;20005;-84
2023/08/13 03:36:24;;;;;;;10.82;4.45;;;15.30;99.90;;;-144.05;83.84;56957.16;6162153;23;20009;-83
2023/08/13 03:38:50;;;;;;;9.50;3.60;;;15.30;99.90;;;-144.05;84.00;56950.78;6162267;23;20020;-83
2023/08/13 03:41:16;;;;;;;11.77;4.65;;;15.30;99.90;;;-144.05;84.30;56961.41;6197642;23;20004;-81
2023/08/13 03:43:41;;;;;;;14.40;4.10;;;15.40;99.90;;;-144.05;83.52;56944.41;6201392;23;20328;-85
2023/08/13 03:46:07;;;;;;;12.73;3.75;;;15.40;99.90;;;-144.05;83.44;56950.78;6193597;23;20024;-85
2023/08/13 03:48:33;;;;;;;13.40;4.15;;;15.50;99.90;;;-144.05;82.50;56946.53;6192333;23;20004;-85
2023/08/13 03:50:59;;;;;;;13.45;3.85;;;15.50;99.90;;;-144.05;82.24;56961.41;6165277;23;20013;-85
2023/08/13 03:53:25;;;;;;;7.57;3.85;;;15.50;99.90;;;-144.05;81.98;56976.28;6164922;23;20123;-84
2023/08/13 03:55:51;;;;;;;8.70;3.08;;;15.50;99.90;;;-144.05;81.51;56967.78;6191771;23;20001;-84
2023/08/13 03:58:17;;;;;;;12.48;3.92;;;15.50;99.90;;;-144.05;81.69;56952.91;6164191;23;20055;-85
2023/08/13 04:00:43;;;;;;;9.80;3.28;;;15.50;99.90;;;-144.05;81.58;56972.03;6190609;23;20024;-84
2023/08/13 04:03:09;;;;;;;10.15;3.25;;;15.40;99.90;;;-144.05;81.86;56982.66;6190786;23;20001;-83
2023/08/13 04:05:35;;;;;;;6.13;3.30;;;15.30;99.90;;;-144.05;81.91;56965.66;6190004;23;20454;-84
2023/08/13 04:08:02;;;;;;;5.18;3.20;;;15.20;99.90;;;-144.05;81.92;56974.16;6189650;23;20016;-84
2023/08/13 04:10:28;;;;;;;4.63;3.15;;;15.20;99.90;;;-144.05;82.22;56957.16;6187868;23;20016;-85
2023/08/13 04:13:00;;;;;;;11.45;3.90;;;15.00;99.90;;;-144.05;82.58;56952.91;6184194;23;20088;-83
2023/08/13 04:15:27;;;;;;;9.05;3.50;;;14.90;99.90;;;-144.05;83.36;56976.28;6186683;23;20063;-83
2023/08/13 04:17:53;;;;;;;7.03;3.40;;;14.80;99.90;;;-144.05;83.45;56969.91;6187510;23;20005;-82
2023/08/13 04:20:20;;;;;;;9.52;3.45;;;14.80;99.90;;;-144.05;83.88;56972.03;6160966;23;20001;-82
2023/08/13 04:22:46;;;;;;;9.90;3.55;;;14.70;99.90;;;-144.05;84.18;56961.41;6187464;23;20039;-83
2023/08/13 04:25:12;;;;;;;13.45;4.32;;;14.70;99.90;;;-144.05;84.76;56938.03;6156170;23;20010;-78
2023/08/13 04:27:37;;;;;;;9.48;3.55;;;14.60;99.90;;;-144.05;85.12;56929.53;6166937;23;20009;-77
2023/08/13 04:30:06;;;;;;;13.00;4.20;;;14.60;99.90;;;-144.05;85.48;56961.41;6168630;23;20006;-78
2023/08/13 04:32:32;;;;;;;7.82;3.55;;;14.60;99.90;;;-144.05;86.05;56952.91;6163869;23;20107;-79
2023/08/13 04:34:58;;;;;;;12.02;3.90;;;14.60;99.90;;;-144.05;85.62;56963.53;6157437;23;20443;-79
2023/08/13 04:37:24;;;;;;;9.15;3.75;;;14.70;99.90;;;-144.05;85.77;56959.28;6159083;23;20511;-80
2023/08/13 04:39:50;;;;;;;13.68;3.70;;;14.70;99.90;;;-144.05;86.12;56965.66;6158767;23;20017;-81
2023/08/13 04:42:16;;;;;;;13.23;3.60;;;14.70;99.90;;;-144.05;85.59;56969.91;6158443;23;20013;-79
2023/08/13 04:44:42;;;;;;;11.15;3.40;;;14.80;99.90;;;-144.05;85.39;56976.28;6158754;23;20017;-78
2023/08/13 04:47:08;;;;;;;11.45;3.92;;;14.80;99.90;;;-144.05;85.25;56957.16;6159088;23;20017;-79
2023/08/13 04:49:33;;;;;;;12.68;3.50;;;14.90;99.90;;;-144.05;84.84;56961.41;6158098;23;20005;-78
2023/08/13 04:51:59;;;;;;;13.13;4.05;;;14.90;99.90;;;-144.05;84.61;56952.91;6158076;23;20009;-78
2023/08/13 04:54:25;;;;;;;8.88;3.05;;;14.90;99.90;;;-144.05;84.41;56976.28;6158980;23;20001;-77
2023/08/13 04:56:51;;;;;;;8.48;3.20;;;15.00;99.90;;;-144.05;83.63;56959.28;6158044;23;20006;-79
2023/08/13 04:59:16;;;;;;;11.00;4.00;;;15.00;99.90;;;-144.05;83.21;56961.41;6159670;23;20017;-80
2023/08/13 05:01:42;;;;;;;8.65;2.90;;;15.10;99.90;;;-144.05;82.78;56946.53;6159231;23;20432;-78
2023/08/13 05:04:08;;;;;;;7.68;2.78;;;15.20;99.90;;;-144.05;82.17;56965.66;6157031;23;20063;-77
2023/08/13 05:06:34;;;;;;;6.65;2.80;;;15.30;99.90;;;-144.05;81.44;56946.53;6182815;23;20355;-80
2023/08/13 05:09:00;;;;;;;9.02;2.85;;;15.40;99.90;;;-144.05;81.36;56957.16;6160273;23;20005;-78
2023/08/13 05:11:26;;;;;;;10.52;3.20;;;15.50;99.90;;;-144.05;81.08;56967.78;6160259;23;20325;-78
2023/08/13 05:13:51;;;;;;;10.05;2.88;;;15.50;99.90;;;-144.05;80.34;56967.78;6163636;23;20021;-76
2023/08/13 05:16:17;;;;;;;9.68;2.80;;;15.60;99.90;;;-144.05;80.25;56957.16;6171945;23;20320;-78
2023/08/13 05:18:43;;;;;;;12.30;3.13;;;15.70;99.90;;;-144.05;79.85;56955.03;6160102;23;20009;-77
2023/08/13 05:21:09;;;;;;;11.20;2.33;;;15.80;99.90;;;-144.05;79.28;56965.66;6159185;23;20072;-80
2023/08/13 05:23:35;;;;;;;12.52;3.25;;;15.90;99.90;;;-144.05;79.17;56963.53;6160958;23;20305;-79
2023/08/13 05:26:00;;;;;;;11.32;3.22;;;16.00;99.90;;;-144.05;78.68;56976.28;6176152;23;20013;-78
2023/08/13 05:28:26;;;;;;;8.85;2.95;;;16.20;99.90;;;-144.05;78.09;56955.03;6189689;23;20012;-79
2023/08/13 05:30:52;;;;;;;13.18;3.47;;;16.30;99.90;;;-144.05;77.36;56950.78;6189411;23;20009;-79
2023/08/13 05:33:18;;;;;;;7.35;3.38;;;16.40;99.90;;;-144.05;77.26;56961.41;6190665;23;20111;-79
2023/08/13 05:35:44;;;;;;;9.98;3.33;;;16.50;99.90;;;-144.05;76.66;56969.91;6189180;23;20047;-79
2023/08/13 05:38:10;;;;;;;14.65;3.78;;;16.60;99.90;;;-144.05;76.14;56993.25;6186994;23;20001;-80
2023/08/13 05:40:35;;;;;;;13.63;3.33;;;16.70;99.90;;;-144.05;75.23;56963.53;6189869;23;20055;-79
2023/08/13 05:43:02;;;;;;;9.45;3.17;;;16.80;99.90;;;-144.05;75.50;56969.91;6163513;23;20431;-78
2023/08/13 05:45:27;;;;;;;10.73;2.95;;;16.90;99.90;;;-144.05;74.73;56963.53;6189657;23;20175;-79
2023/08/13 05:47:56;;;;;;;9.60;2.83;;;17.00;99.90;;;-144.05;73.92;56967.78;6187662;23;20012;-77
2023/08/13 05:50:22;;;;;;;7.68;2.97;;;17.10;99.90;;;-144.05;73.36;56963.53;6187959;23;20012;-79
2023/08/13 05:52:47;;;;;;;8.65;2.50;;;17.20;99.90;;;-144.05;72.86;56957.16;6162085;23;20011;-78
2023/08/13 05:55:15;;;;;;;4.30;2.20;;;17.30;99.90;;;-144.05;72.71;56978.41;6163613;23;20012;-79
2023/08/13 05:57:40;;;;;;;12.35;2.80;;;17.30;99.90;;;-144.05;72.06;56980.53;6195628;23;20024;-80
2023/08/13 06:00:10;;;;;;;8.15;2.45;;;17.40;99.90;;;-144.05;72.12;56967.78;6190083;23;20004;-77
2023/08/13 06:02:37;;;;;;;8.13;2.30;;;17.40;99.90;;;-144.05;72.03;56980.53;6189549;23;20005;-79
2023/08/13 06:05:06;;;;;;;9.65;2.55;;;17.40;99.90;;;-144.05;72.40;56961.41;6189266;23;20036;-79
2023/08/13 06:07:33;;;;;;;7.55;1.75;;;17.40;99.90;;;-144.05;72.48;56984.78;6189301;23;20005;-81
2023/08/13 06:10:01;;;;;;;7.38;2.35;;;17.40;99.90;;;-144.05;72.33;57001.75;6188760;23;20076;-77
2023/08/13 06:12:27;;;;;;;9.20;2.50;;;17.40;99.90;;;-144.05;72.66;56955.03;6188025;23;20096;-78
2023/08/13 06:14:53;;;;;;;4.97;2.20;;;17.40;99.90;;;-144.05;72.48;56963.53;6187154;23;20431;-77
2023/08/13 06:17:19;;;;;;;13.63;2.90;;;17.40;99.90;;;-144.05;72.53;56991.13;6161184;23;20011;-79
2023/08/13 06:19:45;;;;;;;6.85;1.90;;;17.40;99.90;;;-144.05;72.76;56967.78;6186957;23;20031;-80
2023/08/13 06:22:11;;;;;;;8.70;2.70;;;17.40;99.90;;;-144.05;72.37;56989.00;6187388;23;20431;-78
2023/08/13 06:24:37;;;;;;;9.00;2.85;;;17.50;99.90;;;-144.05;72.20;56969.91;6187058;23;20431;-79
2023/08/13 06:27:03;;;;;;;6.28;2.08;;;17.50;99.90;;;-144.05;71.98;56967.78;6187083;23;20017;-78
2023/08/13 06:29:29;;;;;;;12.13;2.60;;;17.60;99.90;;;-144.05;71.97;56948.66;6161193;23;20009;-77
2023/08/13 06:31:55;;;;;;;5.22;2.38;;;17.60;99.90;;;-144.05;72.18;56980.53;6163460;23;20063;-77
2023/08/13 06:34:21;;;;;;;8.07;2.20;;;17.70;99.90;;;-144.05;71.87;56995.38;6202597;23;20009;-78
2023/08/13 06:36:47;;;;;;;4.45;1.77;;;17.70;99.90;;;-144.05;71.71;56980.53;6202828;23;20005;-78
2023/08/13 06:39:13;;;;;;;7.10;2.30;;;17.80;99.90;;;-144.05;71.74;56978.41;6204167;23;20001;-78
2023/08/13 06:41:39;;;;;;;6.85;2.15;;;17.80;99.90;;;-144.05;71.72;56974.16;6205301;23;20036;-78
2023/08/13 06:44:06;;;;;;;10.35;2.38;;;17.80;99.90;;;-144.05;71.84;56982.66;6180867;23;20423;-78
2023/08/13 06:46:32;;;;;;;8.07;2.00;;;17.90;99.90;;;-144.05;71.39;56999.63;6206185;23;19997;-79
2023/08/13 06:48:58;;;;;;;6.55;2.30;;;17.90;99.90;;;-144.05;70.95;56967.78;6188201;23;20323;-79
2023/08/13 06:51:24;;;;;;;4.40;1.75;;;18.00;99.90;;;-144.05;70.58;56967.78;6187929;23;20021;-78
2023/08/13 06:53:50;;;;;;;6.47;2.17;;;18.10;99.90;;;-144.05;70.10;56982.66;6191185;23;20004;-79
2023/08/13 06:56:15;;;;;;;6.82;2.08;;;18.20;99.90;;;-144.05;69.70;56963.53;6196688;23;20001;-79
2023/08/13 06:58:41;;;;;;;5.38;1.88;;;18.40;99.90;;;-144.05;68.17;56978.41;6187703;23;20439;-78
2023/08/13 07:01:07;;;;;;;8.70;1.95;;;19.00;99.90;;;-144.05;66.07;56986.91;6162976;23;20028;-79
2023/08/13 07:03:33;;;;;;;6.97;2.10;;;19.60;99.90;;;-144.05;63.47;56997.50;6187369;23;20009;-80
2023/08/13 07:05:59;;;;;;;6.28;1.98;;;20.10;99.90;;;-144.05;64.06;57001.75;6186914;23;20009;-80
2023/08/13 07:08:25;;;;;;;7.45;1.95;;;20.10;99.90;;;-144.05;64.91;57012.38;6187992;23;20032;-78
2023/08/13 07:10:51;;;;;;;10.63;2.05;;;20.10;99.90;;;-144.05;63.74;56993.25;6189178;23;20009;-79
2023/08/13 07:13:17;;;;;;;7.72;2.00;;;20.10;99.90;;;-144.05;63.84;56997.50;6189844;23;20006;-79
2023/08/13 07:15:42;;;;;;;9.05;2.05;;;20.00;99.90;;;-144.05;64.28;56986.91;6188083;23;20446;-78
2023/08/13 07:18:08;;;;;;;6.68;1.80;;;19.90;99.90;;;-144.05;64.43;56946.53;6185615;23;20351;-78
2023/08/13 07:20:34;;;;;;;4.28;2.20;;;20.10;99.90;;;-144.05;63.71;57010.25;6187880;23;20005;-78
2023/08/13 07:23:00;;;;;;;8.85;2.25;;;20.20;99.90;;;-144.05;63.20;56993.25;6185048;23;20013;-78
2023/08/13 07:25:26;;;;;;;5.78;1.70;;;20.50;99.90;;;-144.05;62.52;57006.00;6187024;23;20013;-79
2023/08/13 07:27:54;;;;;;;8.43;1.92;;;20.60;99.90;;;-144.05;61.74;57006.00;6160006;23;20009;-78
2023/08/13 07:30:20;;;;;;;4.40;2.17;;;20.50;99.90;;;-144.05;62.10;56999.63;6186727;23;20505;-78
2023/08/13 07:32:46;;;;;;;7.00;2.17;;;20.60;99.90;;;-144.05;61.25;57025.13;6185139;23;20009;-79
2023/08/13 07:35:12;;;;;;;3.40;1.55;;;20.80;99.90;;;-144.05;60.92;56997.50;6187479;23;20343;-78
2023/08/13 07:37:38;;;;;;;6.82;1.73;;;21.10;99.90;;;-144.05;60.38;57014.50;6188092;23;20337;-79
2023/08/13 07:40:11;;;;;;;7.25;1.85;;;21.20;99.90;;;-144.05;59.62;57018.75;6187227;23;20028;-78
2023/08/13 07:42:38;;;;;;;7.30;1.30;;;21.50;99.90;;;-144.05;59.17;57048.50;6187289;23;20090;-78
2023/08/13 07:45:08;;;;;;;7.43;1.80;;;21.80;99.90;;;-144.05;58.29;57031.50;6187455;23;20009;-78
2023/08/13 07:47:36;;;;;;;3.67;1.30;;;22.10;99.90;;;-144.05;57.44;57012.38;6186520;23;20013;-78
2023/08/13 07:50:04;;;;;;;4.85;1.63;;;22.30;99.90;;;-144.05;55.48;57042.13;6186035;23;20016;-78
2023/08/13 07:52:34;;;;;;;5.88;1.50;;;22.50;99.90;;;-144.05;52.82;57035.75;6188610;23;20103;-79
2023/08/13 07:55:00;;;;;;;7.60;1.38;;;22.80;99.90;;;-144.05;52.00;57052.75;6188128;23;20441;-78
2023/08/13 07:57:26;;;;;;;5.43;1.38;;;23.10;99.90;;;-144.05;51.30;57056.97;6189176;23;20005;-78
2023/08/13 07:59:52;;;;;;;5.63;1.67;;;23.30;99.90;;;-144.05;51.20;57061.22;6187525;23;20005;-76
2023/08/13 08:02:18;;;;;;;5.10;1.40;;;23.40;99.90;;;-144.05;49.22;57048.50;6190209;23;20015;-78
2023/08/13 08:04:47;;;;;;;6.95;1.67;;;23.50;99.90;;;-144.05;49.11;57061.22;6190207;23;20200;-79
2023/08/13 08:07:13;;;;;;;3.65;1.35;;;23.70;99.90;;;-144.05;48.12;57086.72;6188314;23;20009;-78
2023/08/13 08:09:39;;;;;;;4.00;1.23;;;23.80;99.90;;;-144.05;47.27;57082.47;6190925;23;20015;-78
2023/08/13 08:12:05;;;;;;;5.15;1.60;;;23.80;99.90;;;-144.05;46.01;57099.47;6190881;23;20422;-80
2023/08/13 08:14:31;;;;;;;4.72;1.50;;;24.00;99.90;;;-144.05;46.81;57107.97;6188561;23;20060;-80
2023/08/13 08:17:00;;;;;;;3.63;1.13;;;24.00;99.90;;;-144.05;46.69;57080.34;6189829;23;20319;-78
2023/08/13 08:19:26;;;;;;;8.45;1.58;;;24.00;99.90;;;-144.05;47.52;57076.09;6190068;23;20334;-79
2023/08/13 08:21:56;;;;;;;3.90;1.35;;;23.90;99.90;;;-144.05;47.59;57097.34;6190920;23;20037;-80
2023/08/13 08:24:22;;;;;;;4.25;1.30;;;24.10;99.90;;;-144.05;45.63;57063.34;6191371;23;20055;-78
2023/08/13 08:26:48;;;;;;;6.10;1.63;;;24.00;99.90;;;-144.05;45.26;57065.47;6191285;23;20442;-81
2023/08/13 08:29:14;;;;;;;6.32;1.40;;;24.10;99.90;;;-144.05;46.24;57088.84;6190522;23;20005;-78
2023/08/13 08:31:39;;;;;;;5.82;1.50;;;24.30;99.90;;;-144.05;45.96;57099.47;6189762;23;20068;-78
2023/08/13 08:34:05;;;;;;;4.32;1.42;;;24.30;99.90;;;-144.05;44.74;57124.97;6199198;23;20008;-76
2023/08/13 08:36:31;;;;;;;4.15;1.20;;;24.50;99.90;;;-144.05;44.61;57110.09;6194689;23;20005;-80
2023/08/13 08:38:57;;;;;;;4.35;1.27;;;24.50;99.90;;;-144.05;41.86;57103.72;6165152;23;20012;-79
2023/08/13 08:41:28;;;;;;;5.38;0.98;;;24.90;99.90;;;-144.05;43.15;57101.59;6189922;23;20008;-79
2023/08/13 08:43:55;;;;;;;5.60;1.00;;;25.00;99.90;;;-144.05;42.22;57099.47;6190666;23;20084;-79
2023/08/13 08:46:23;;;;;;;3.47;1.30;;;25.00;99.90;;;-144.05;42.58;57146.19;6190096;23;20009;-77
2023/08/13 08:48:50;;;;;;;4.72;1.60;;;25.10;99.90;;;-144.05;44.49;57086.72;6189740;23;20021;-78
2023/08/13 08:51:19;;;;;;;2.22;1.00;;;24.60;99.90;;;-144.05;45.24;57059.09;6190112;23;20009;-78
2023/08/13 08:53:46;;;;;;;4.53;0.93;;;24.00;99.90;;;-144.05;45.13;57093.09;6189491;23;20080;-77
2023/08/13 08:56:12;;;;;;;5.25;1.55;;;24.00;99.90;;;-144.05;44.34;57082.47;6189329;23;20017;-77
2023/08/13 08:58:38;;;;;;;7.45;1.33;;;24.10;99.90;;;-144.05;43.94;57097.34;6189639;23;20007;-78
2023/08/13 09:01:05;;;;;;;5.82;1.33;;;24.20;99.90;;;-144.05;43.63;57090.97;6163298;23;20160;-78
2023/08/13 09:03:31;;;;;;;2.72;0.95;;;24.20;99.90;;;-144.05;42.99;57116.47;6162713;23;20012;-78
2023/08/13 09:05:56;;;;;;;4.63;1.33;;;24.40;99.90;;;-144.05;43.29;57095.22;6188230;23;20041;-78
2023/08/13 09:08:22;;;;;;;3.90;1.13;;;24.30;99.90;;;-144.05;43.54;57103.72;6189404;23;20005;-77
2023/08/13 09:10:48;;;;;;;2.85;1.20;;;24.60;99.90;;;-144.05;42.73;57086.72;6190630;23;20028;-78
2023/08/13 09:13:14;;;;;;;4.95;1.23;;;24.40;99.90;;;-144.05;43.93;57090.97;6189967;23;20088;-78
2023/08/13 09:15:58;;;;;;;3.13;1.10;;;24.30;99.90;;;-144.05;44.46;57097.34;6190460;23;20039;-79
2023/08/13 09:18:24;;;;;;;3.30;1.10;;;24.30;99.90;;;-144.05;44.82;57103.72;6163005;23;20505;-80
2023/08/13 09:20:50;;;;;;;2.25;1.08;;;24.40;99.90;;;-144.05;42.57;57086.72;6190120;23;20013;-78
2023/08/13 09:23:24;;;;;;;5.85;1.13;;;24.60;99.90;;;-144.05;41.51;57110.09;6188417;23;20009;-77
2023/08/13 09:25:55;;;;;;;2.78;1.05;;;24.70;99.90;;;-144.05;41.62;57112.22;6190031;23;20354;-79
2023/08/13 09:28:22;;;;;;;4.78;1.40;;;24.70;99.90;;;-144.05;41.95;57082.47;6189995;23;20005;-79
2023/08/13 09:30:49;;;;;;;5.30;1.25;;;24.70;99.90;;;-144.05;42.17;57112.22;6190372;23;20016;-77
2023/08/13 09:33:17;;;;;;;3.83;0.77;;;24.90;99.90;;;-144.05;41.38;57107.97;6190700;23;20005;-80
2023/08/13 09:35:45;;;;;;;3.55;0.90;;;24.70;99.90;;;-144.05;41.67;57107.97;6189948;23;20001;-79
2023/08/13 09:38:11;;;;;;;3.22;0.80;;;24.80;99.90;;;-144.05;41.17;57110.09;6190188;23;20024;-80
2023/08/13 09:40:38;;;;;;;2.95;1.00;;;24.90;99.90;;;-144.05;40.91;57110.09;6190841;23;20012;-79
2023/08/13 09:43:08;;;;;;;3.60;0.90;;;24.80;99.90;;;-144.05;42.01;57129.22;6189310;23;20177;-79
2023/08/13 09:45:35;;;;;;;3.83;1.10;;;24.90;99.90;;;-144.05;42.31;57112.22;6189703;23;20029;-80
2023/08/13 09:48:06;;;;;;;3.38;1.27;;;24.80;99.90;;;-144.05;42.53;57103.72;6190502;23;20039;-78
2023/08/13 09:50:41;;;;;;;4.07;1.08;;;24.70;99.90;;;-144.05;42.91;57114.34;6188314;23;20008;-77
2023/08/13 09:53:13;;;;;;;5.07;1.50;;;24.60;99.90;;;-144.05;44.44;57103.72;6190446;23;20329;-77
2023/08/13 09:55:59;;;;;;;6.65;1.50;;;24.30;99.90;;;-144.05;44.97;57067.59;6187609;23;20004;-77
2023/08/13 09:58:27;;;;;;;4.97;1.33;;;23.90;99.90;;;-144.05;45.44;57073.97;6189838;23;20496;-80
2023/08/13 10:00:53;;;;;;;4.93;1.35;;;23.60;99.90;;;-144.05;46.31;57071.84;6186755;23;20059;-78
2023/08/13 10:03:19;;;;;;;4.07;1.55;;;23.50;99.90;;;-144.05;46.98;57065.47;6189747;23;20064;-76
2023/08/13 10:05:47;;;;;;;5.68;1.35;;;23.60;99.90;;;-144.05;45.37;57095.22;6187556;23;20021;-80